Station: EBLG - 23/06/2018 04:20Z (il y a 13 minutes)
EBLG 230420Z 27003KT CAVOK 07/06 Q1028 NOSIG
Vent du 270º - 3 kt
Visibilité > 10 km et plafond haut ou pas de nuages significatifs
Température: +07ºC - Point de rosée: +06ºC - QNH: 1028 hPa
Pas de changement significatif prévu dans les 2 heures qui suivent l'observation